Time;durP1;ratioP1;P1;durP2;ratioP2;P2;SDS_P1;SDS_P2;PMS_P1;PMS_P2;Temp;Humidity;BMP_temperature;BMP_pressure;BME280_temperature;BME280_humidity;BME280_pressure;Samples;Min_cycle;Max_cycle;Signal;HPM_P1;HPM_P2
2022/12/08 00:01:31;;;;;;;11.45;5.72;;;;;;;-6.85;58.35;100404.63;5032892;28;20036;-50
2022/12/08 00:03:58;;;;;;;16.80;7.13;;;;;;;-7.08;58.87;100364.69;5033240;28;20036;-49
2022/12/08 00:09:23;;;;;;;16.23;6.40;;;;;;;-6.71;58.12;100386.41;5031646;28;20033;-50
2022/12/08 00:11:55;;;;;;;11.13;6.07;;;;;;;-6.69;57.92;100400.28;5032769;28;20391;-48
2022/12/08 00:14:23;;;;;;;12.18;6.00;;;;;;;-6.80;58.33;100382.91;5032749;28;20520;-53
2022/12/08 00:16:48;;;;;;;10.63;5.47;;;;;;;-6.57;57.75;100409.84;5032149;28;20029;-51
2022/12/08 00:19:14;;;;;;;14.43;6.85;;;;;;;-6.78;57.46;100367.31;5033192;28;20458;-48
2022/12/08 00:21:39;;;;;;;13.35;6.40;;;;;;;-6.88;58.31;100375.97;5032883;28;20025;-51
2022/12/08 00:24:05;;;;;;;17.60;6.03;;;;;;;-6.81;58.32;100367.31;5032637;28;20496;-52
2022/12/08 00:26:30;;;;;;;9.25;4.07;;;;;;;-6.78;58.02;100386.38;5032178;28;20439;-48
2022/12/08 00:28:56;;;;;;;12.75;6.70;;;;;;;-6.79;57.99;100373.38;5033054;28;20033;-51
2022/12/08 00:31:21;;;;;;;17.55;6.03;;;;;;;-6.79;58.04;100358.59;5032852;28;20056;-51
2022/12/08 00:33:47;;;;;;;14.77;6.35;;;;;;;-6.88;58.57;100363.84;5032651;28;20029;-49
2022/12/08 00:36:13;;;;;;;11.90;5.90;;;;;;;-6.80;58.46;100377.72;5032252;28;20112;-49
2022/12/08 00:38:39;;;;;;;13.75;6.50;;;;;;;-6.73;58.53;100364.72;5032511;28;20433;-51
2022/12/08 00:41:12;;;;;;;10.07;5.35;;;;;;;-6.69;57.96;100366.44;5032492;28;20037;-48
2022/12/08 00:43:38;;;;;;;11.50;4.93;;;;;;;-6.63;57.98;100369.03;5032189;28;20052;-48
2022/12/08 00:46:03;;;;;;;10.60;5.13;;;;;;;-6.66;57.68;100363.81;5032404;28;20033;-49
2022/12/08 00:48:29;;;;;;;12.02;5.90;;;;;;;-6.66;57.70;100363.81;5032545;28;20469;-48
2022/12/08 00:50:54;;;;;;;11.68;5.65;;;;;;;-6.68;57.83;100355.16;5032525;28;20041;-49
2022/12/08 00:53:20;;;;;;;13.30;5.53;;;;;;;-6.69;57.87;100351.66;5031831;28;20056;-53
2022/12/08 00:55:45;;;;;;;12.32;6.05;;;;;;;-6.83;58.03;100330.84;5032547;28;20483;-47
2022/12/08 00:58:11;;;;;;;11.57;5.78;;;;;;;-6.59;57.54;100354.28;5032901;28;20341;-47
2022/12/08 01:00:39;;;;;;;10.50;5.63;;;;;;;-6.71;58.33;100356.00;5032133;28;20040;-49
2022/12/08 01:03:05;;;;;;;12.38;5.28;;;;;;;-6.80;58.01;100341.25;5031975;28;20029;-49
2022/12/08 01:05:30;;;;;;;9.52;5.72;;;;;;;-6.76;58.44;100347.34;5032302;28;20040;-48
2022/12/08 01:07:55;;;;;;;12.18;5.38;;;;;;;-6.62;57.86;100347.31;5032476;28;20144;-46
2022/12/08 01:10:21;;;;;;;8.02;4.47;;;;;;;-6.74;57.41;100316.09;5032041;28;20033;-54
2022/12/08 01:12:47;;;;;;;10.55;5.45;;;;;;;-6.74;57.56;100340.38;5032410;28;20037;-49
2022/12/08 01:15:12;;;;;;;11.20;5.60;;;;;;;-6.65;57.38;100360.34;5032203;28;20032;-47
2022/12/08 01:17:37;;;;;;;14.48;6.10;;;;;;;-6.74;58.13;100373.38;5034162;28;20033;-47
2022/12/08 01:20:04;;;;;;;8.60;4.60;;;;;;;-6.95;58.23;100310.91;5036226;28;20108;-49
2022/12/08 01:22:29;;;;;;;12.68;5.55;;;;;;;-6.72;57.94;100358.63;5036034;28;20103;-50
2022/12/08 01:24:55;;;;;;;13.07;6.00;;;;;;;-6.71;57.82;100362.97;5034792;28;20120;-54
2022/12/08 01:27:20;;;;;;;11.63;6.07;;;;;;;-6.69;57.38;100358.63;5036908;28;20048;-47
2022/12/08 01:29:46;;;;;;;16.25;6.93;;;;;;;-6.68;57.45;100355.16;5035811;28;20025;-46
2022/12/08 01:32:11;;;;;;;10.68;5.43;;;;;;;-6.69;57.22;100340.38;5035792;28;20029;-52
2022/12/08 01:34:37;;;;;;;13.82;6.85;;;;;;;-6.73;57.87;100341.28;5034941;28;20116;-51
2022/12/08 01:37:02;;;;;;;13.02;6.57;;;;;;;-6.77;58.01;100358.63;5035755;28;20444;-50
2022/12/08 01:39:28;;;;;;;13.52;5.75;;;;;;;-6.71;57.81;100370.78;5035531;28;20033;-50
2022/12/08 01:41:54;;;;;;;15.57;5.75;;;;;;;-6.70;57.33;100346.47;5035672;28;20429;-47
2022/12/08 01:44:19;;;;;;;12.20;6.20;;;;;;;-6.65;57.38;100360.34;5035854;28;20112;-51
2022/12/08 01:46:48;;;;;;;14.60;6.38;;;;;;;-6.85;58.00;100350.81;5035522;28;20123;-53
2022/12/08 01:49:34;;;;;;;12.32;6.18;;;;;;;-6.85;58.52;100343.00;5035215;28;20460;-51
2022/12/08 01:52:15;;;;;;;14.57;6.57;;;;;;;-6.79;58.34;100345.59;5035677;28;20120;-49
2022/12/08 01:54:55;;;;;;;13.40;6.18;;;;;;;-6.66;58.01;100350.81;5035609;28;20037;-53
2022/12/08 01:57:29;;;;;;;17.73;7.07;;;;;;;-6.77;57.97;100345.59;5035735;28;20155;-54
2022/12/08 02:00:07;;;;;;;14.18;6.00;;;;;;;-6.80;58.09;100346.47;5035599;28;20041;-53
2022/12/08 02:02:42;;;;;;;13.93;6.22;;;;;;;-6.98;57.80;100315.25;5035402;28;20034;-50
2022/12/08 02:05:08;;;;;;;12.30;6.13;;;;;;;-6.76;57.41;100342.13;5035089;28;20104;-49
2022/12/08 02:07:34;;;;;;;12.38;7.03;;;;;;;-6.83;57.68;100356.88;5035632;28;20163;-50
2022/12/08 02:10:00;;;;;;;11.40;5.38;;;;;;;-6.92;57.96;100330.88;5035411;28;20061;-47
2022/12/08 02:12:25;;;;;;;13.20;7.47;;;;;;;-6.88;58.03;100347.34;5034135;28;20041;-49
2022/12/08 02:15:11;;;;;;;;;;;;;;;-6.59;57.16;100344.69;5034823;28;20360;-50
2022/12/08 02:17:45;;;;;;;12.25;5.88;;;;;;;-6.69;57.24;100353.41;5035111;28;19917;-48
2022/12/08 02:20:36;;;;;;;12.65;6.57;;;;;;;-7.18;57.67;100281.41;5034812;28;20041;-49
2022/12/08 02:23:29;;;;;;;14.55;6.00;;;;;;;-6.75;57.57;100345.59;5034963;28;20046;-53
2022/12/08 02:26:13;;;;;;;13.32;6.43;;;;;;;-6.75;57.65;100325.63;5034964;28;20030;-53
2022/12/08 02:28:59;;;;;;;16.02;7.28;;;;;;;-6.83;57.99;100335.19;5034244;28;20052;-50
2022/12/08 02:32:13;;;;;;;16.25;6.43;;;;;;;-6.82;58.03;100334.34;5035183;28;20045;-54
2022/12/08 02:34:59;;;;;;;12.30;6.72;;;;;;;-6.82;57.78;100348.19;4998744;28;20039;-54
2022/12/08 02:37:38;;;;;;;15.25;7.00;;;;;;;-6.86;58.14;100315.22;5034163;28;20033;-52
2022/12/08 02:40:21;;;;;;;14.80;6.95;;;;;;;-6.89;57.99;100289.19;5034248;28;20390;-51
2022/12/08 02:42:55;;;;;;;12.13;6.55;;;;;;;-6.86;58.31;100317.84;5034877;28;20041;-48
2022/12/08 02:45:30;;;;;;;12.98;6.90;;;;;;;-6.79;58.37;100305.69;5033874;28;20416;-47
2022/12/08 02:47:57;;;;;;;12.48;6.75;;;;;;;-6.77;58.02;100294.38;5034038;28;20122;-48
2022/12/08 02:50:23;;;;;;;16.10;6.95;;;;;;;-6.69;57.71;100301.31;5034305;28;20412;-50
2022/12/08 02:52:49;;;;;;;10.57;5.75;;;;;;;-6.72;57.80;100307.41;5034812;28;20061;-51
2022/12/08 02:55:26;;;;;;;10.88;5.60;;;;;;;-6.69;58.21;100316.94;5034558;28;20037;-47
2022/12/08 02:57:59;;;;;;;14.80;7.18;;;;;;;-6.71;57.91;100316.94;5033741;28;20033;-48
2022/12/08 03:00:28;;;;;;;6.65;3.25;;;;;;;-6.56;56.97;100310.81;5034701;28;20045;-50
2022/12/08 03:03:37;;;;;;;16.20;7.57;;;;;;;-6.79;57.75;100285.69;5034910;28;20586;-49
2022/12/08 03:06:33;;;;;;;11.57;6.57;;;;;;;-6.79;57.95;100298.72;5033706;28;20033;-49
2022/12/08 03:09:21;;;;;;;13.40;6.30;;;;;;;-6.71;57.69;100314.34;5034081;28;20033;-47
2022/12/08 03:11:58;;;;;;;14.63;6.55;;;;;;;-6.81;57.92;100295.25;5034322;28;20033;-52
2022/12/08 03:14:24;;;;;;;17.65;6.63;;;;;;;-6.83;57.82;100283.13;5034217;28;20040;-50
2022/12/08 03:16:54;;;;;;;15.82;7.28;;;;;;;-6.79;58.31;100314.34;5033026;28;20046;-47
2022/12/08 03:19:27;;;;;;;13.23;7.05;;;;;;;-6.84;58.15;100290.06;5033670;28;20418;-48
2022/12/08 03:22:01;;;;;;;13.52;6.95;;;;;;;-7.07;58.05;100258.88;5034357;28;20030;-50
2022/12/08 03:24:31;;;;;;;12.80;6.40;;;;;;;-6.80;57.88;100283.13;5033072;28;20026;-51
2022/12/08 03:27:13;;;;;;;14.25;7.00;;;;;;;-6.80;57.94;100289.19;5034072;28;20103;-49
2022/12/08 03:29:39;;;;;;;13.90;7.03;;;;;;;-6.74;57.59;100277.03;5033424;28;20356;-49
2022/12/08 03:32:19;;;;;;;16.75;7.35;;;;;;;-6.82;57.92;100300.47;5033402;28;20033;-54
2022/12/08 03:34:47;;;;;;;12.57;6.00;;;;;;;-6.81;57.71;100310.03;5033496;28;20051;-51
2022/12/08 03:37:13;;;;;;;12.05;6.32;;;;;;;-6.81;57.54;100316.09;5033349;28;20029;-52
2022/12/08 03:39:38;;;;;;;15.93;7.47;;;;;;;-7.10;57.97;100248.47;5033092;28;20036;-49
2022/12/08 03:42:04;;;;;;;13.20;6.28;;;;;;;-6.89;57.96;100277.91;5033621;28;20026;-49
2022/12/08 03:44:29;;;;;;;13.02;6.45;;;;;;;-6.92;58.22;100263.19;5033479;28;20035;-55
2022/12/08 03:46:55;;;;;;;13.63;7.00;;;;;;;-6.93;57.80;100277.91;5033757;28;20113;-50
2022/12/08 03:49:20;;;;;;;12.57;7.07;;;;;;;-6.94;58.08;100281.38;5033541;28;20141;-52
2022/12/08 03:51:46;;;;;;;13.30;7.10;;;;;;;-6.95;58.44;100278.81;5033127;28;20061;-50
2022/12/08 03:54:11;;;;;;;16.25;7.03;;;;;;;-7.02;58.01;100275.34;5033253;28;20049;-51
2022/12/08 03:56:38;;;;;;;14.25;7.13;;;;;;;-6.94;58.29;100281.38;5033360;28;20163;-53
2022/12/08 03:59:04;;;;;;;13.88;6.95;;;;;;;-6.96;58.80;100264.91;5032924;28;20037;-55
2022/12/08 04:01:30;;;;;;;15.55;6.65;;;;;;;-6.97;58.71;100265.78;5033530;28;20039;-50
2022/12/08 04:03:56;;;;;;;13.20;6.47;;;;;;;-6.94;58.93;100265.78;5033278;28;20108;-49
2022/12/08 04:06:22;;;;;;;12.60;6.55;;;;;;;-6.94;58.88;100264.91;5032676;28;20041;-49
2022/12/08 04:08:48;;;;;;;13.00;6.55;;;;;;;-6.87;58.30;100264.03;5032908;28;20033;-49
2022/12/08 04:11:14;;;;;;;16.85;7.40;;;;;;;-6.78;58.65;100268.34;5033035;28;20419;-49
2022/12/08 04:13:40;;;;;;;17.02;7.93;;;;;;;-6.85;58.48;100264.88;5032789;28;20026;-52
2022/12/08 04:16:06;;;;;;;12.77;6.50;;;;;;;-6.89;58.68;100270.97;5032713;28;20076;-48
2022/12/08 04:18:33;;;;;;;14.05;6.78;;;;;;;-7.08;58.62;100207.69;5032646;28;20462;-54
2022/12/08 04:20:59;;;;;;;13.80;6.03;;;;;;;-6.88;58.86;100243.19;5033285;28;20120;-51
2022/12/08 04:23:24;;;;;;;14.82;7.63;;;;;;;-6.84;58.71;100245.78;5032298;28;20193;-52
2022/12/08 04:25:51;;;;;;;15.23;6.25;;;;;;;-7.09;59.40;100219.81;5032394;28;20037;-51
2022/12/08 04:28:16;;;;;;;15.10;6.80;;;;;;;-6.93;59.53;100251.03;5032565;28;20432;-52
2022/12/08 04:30:42;;;;;;;7.40;3.60;;;;;;;-6.80;59.17;100257.94;5032365;28;20029;-55
2022/12/08 04:33:07;;;;;;;15.73;7.28;;;;;;;-6.90;59.14;100256.22;5032514;28;20334;-47
2022/12/08 04:35:33;;;;;;;11.85;6.10;;;;;;;-6.86;58.89;100289.19;5032351;28;20484;-54
2022/12/08 04:37:58;;;;;;;11.68;5.95;;;;;;;-6.84;59.27;100260.56;5031996;28;20108;-49
2022/12/08 04:40:24;;;;;;;14.00;6.70;;;;;;;-7.04;59.55;100255.38;5032593;28;20029;-51
2022/12/08 04:42:49;;;;;;;18.63;6.22;;;;;;;-7.07;60.01;100246.72;5032378;28;20033;-52
2022/12/08 04:45:15;;;;;;;13.13;7.07;;;;;;;-7.14;60.25;100251.91;5031814;28;20041;-50
2022/12/08 04:47:41;;;;;;;13.70;7.20;;;;;;;-7.14;60.42;100242.38;5032764;28;20056;-50
2022/12/08 04:50:08;;;;;;;14.38;6.53;;;;;;;-7.07;60.75;100259.72;5032620;28;20132;-50
2022/12/08 04:52:33;;;;;;;17.65;7.70;;;;;;;-7.08;61.21;100250.19;5031982;28;20040;-55
2022/12/08 04:54:59;;;;;;;15.75;7.25;;;;;;;-6.91;59.96;100272.72;5031776;28;20022;-52
2022/12/08 04:57:25;;;;;;;14.00;6.05;;;;;;;-6.92;59.95;100258.81;5032355;28;20410;-48
2022/12/08 04:59:50;;;;;;;14.13;6.63;;;;;;;-6.96;60.25;100251.03;5032808;28;20029;-47
2022/12/08 05:02:15;;;;;;;13.90;6.25;;;;;;;-7.03;60.77;100250.19;5031938;28;20432;-51
2022/12/08 05:04:41;;;;;;;13.07;6.43;;;;;;;-7.03;60.73;100254.50;5032041;28;20447;-52
2022/12/08 05:07:06;;;;;;;14.38;7.35;;;;;;;-7.03;60.59;100244.09;5032450;28;20030;-48
2022/12/08 05:09:32;;;;;;;13.43;5.90;;;;;;;-7.06;60.66;100235.41;5032236;28;20082;-49
2022/12/08 05:11:57;;;;;;;17.55;6.60;;;;;;;-7.03;60.70;100234.56;5032113;28;20033;-48
2022/12/08 05:14:23;;;;;;;15.57;6.75;;;;;;;-6.97;60.58;100241.50;5031807;28;20408;-48
2022/12/08 05:16:48;;;;;;;15.15;6.88;;;;;;;-6.99;60.35;100261.44;5032152;28;20026;-58
2022/12/08 05:19:15;;;;;;;15.90;6.80;;;;;;;-6.96;60.09;100251.91;5029609;28;20080;-57
2022/12/08 05:21:40;;;;;;;14.07;6.05;;;;;;;-6.96;60.00;100236.28;5032184;28;20041;-44
2022/12/08 05:24:06;;;;;;;12.57;6.07;;;;;;;-6.99;60.04;100240.59;5031921;28;20025;-54
2022/12/08 05:26:32;;;;;;;13.65;6.18;;;;;;;-7.07;60.02;100225.88;5031916;28;20116;-52
2022/12/08 05:28:57;;;;;;;16.85;6.75;;;;;;;-7.01;60.45;100235.44;5031466;28;20022;-51
2022/12/08 05:31:23;;;;;;;16.40;6.95;;;;;;;-6.98;60.58;100235.41;5030744;28;20441;-48
2022/12/08 05:33:50;;;;;;;14.43;6.38;;;;;;;-7.02;60.70;100235.41;5031223;28;20431;-52
2022/12/08 05:36:15;;;;;;;16.10;6.65;;;;;;;-6.95;60.38;100255.38;5031901;28;20067;-50
2022/12/08 05:38:41;;;;;;;14.27;6.82;;;;;;;-7.03;59.63;100212.84;5031633;28;20124;-49
2022/12/08 05:41:09;;;;;;;14.65;6.53;;;;;;;-7.01;60.27;100242.34;5031763;28;20117;-56
2022/12/08 05:43:35;;;;;;;17.30;6.70;;;;;;;-7.08;60.65;100234.56;5031646;28;20036;-51
2022/12/08 05:46:00;;;;;;;15.30;6.00;;;;;;;-6.97;59.78;100281.41;5031668;28;20399;-52
2022/12/08 05:48:26;;;;;;;13.02;5.50;;;;;;;-6.96;59.58;100244.09;5031763;28;20134;-51
2022/12/08 05:50:52;;;;;;;17.20;6.07;;;;;;;-6.97;60.06;100244.09;5031947;28;20061;-53
2022/12/08 05:53:19;;;;;;;13.25;6.25;;;;;;;-7.07;60.47;100251.06;5030823;28;20026;-55
2022/12/08 05:55:45;;;;;;;13.48;6.13;;;;;;;-7.08;60.40;100247.56;5031630;28;20033;-53
2022/12/08 05:58:14;;;;;;;16.20;6.13;;;;;;;-7.00;60.18;100239.75;5031917;28;20065;-57
2022/12/08 06:00:40;;;;;;;14.27;5.78;;;;;;;-7.02;60.35;100230.22;5031762;28;20365;-62
2022/12/08 06:03:07;;;;;;;13.13;5.70;;;;;;;-6.99;60.21;100251.91;5014300;28;20368;-51
2022/12/08 06:05:34;;;;;;;13.50;4.85;;;;;;;-6.90;59.78;100240.59;5033675;28;20464;-53
2022/12/08 06:07:59;;;;;;;16.40;7.72;;;;;;;-7.01;60.24;100256.25;5035013;28;20030;-51
2022/12/08 06:10:25;;;;;;;13.52;5.07;;;;;;;-6.90;60.09;100240.59;5035265;28;20355;-52
2022/12/08 06:12:50;;;;;;;13.15;5.82;;;;;;;-6.98;60.39;100252.78;5035074;28;20045;-50
2022/12/08 06:15:16;;;;;;;16.60;6.10;;;;;;;-6.93;59.85;100256.25;5035377;28;20034;-52
2022/12/08 06:17:41;;;;;;;13.35;5.35;;;;;;;-6.95;60.47;100237.16;5035075;28;20037;-52
2022/12/08 06:20:07;;;;;;;10.60;5.47;;;;;;;-7.03;60.56;100244.09;5035168;28;20467;-52
2022/12/08 06:22:33;;;;;;;13.95;6.47;;;;;;;-7.00;60.37;100244.09;5035196;28;20040;-52
2022/12/08 06:24:59;;;;;;;9.95;5.22;;;;;;;-6.98;60.58;100238.03;5034830;28;20029;-49
2022/12/08 06:27:24;;;;;;;14.15;5.85;;;;;;;-6.96;60.46;100235.44;5034839;28;20408;-49
2022/12/08 06:29:50;;;;;;;14.38;5.88;;;;;;;-6.93;60.59;100231.06;5034729;28;20037;-49
2022/12/08 06:32:15;;;;;;;12.05;5.05;;;;;;;-6.87;60.32;100218.88;5034581;28;20457;-50
2022/12/08 06:34:40;;;;;;;15.73;6.63;;;;;;;-6.89;60.34;100225.84;5035256;28;20524;-52
2022/12/08 06:37:06;;;;;;;12.70;5.95;;;;;;;-6.81;60.02;100234.53;5035261;28;20448;-54
2022/12/08 06:39:31;;;;;;;10.77;5.20;;;;;;;-6.74;59.75;100264.03;5034664;28;20047;-55
2022/12/08 06:44:41;;;;;;;13.10;5.93;;;;;;;-6.80;60.41;100268.34;5034408;28;20394;-56
2022/12/08 06:47:06;;;;;;;10.82;5.93;;;;;;;-6.74;59.98;100224.97;5034816;28;20049;-54
2022/12/08 06:49:32;;;;;;;13.75;6.28;;;;;;;-6.70;59.74;100232.72;5034438;28;20038;-53
2022/12/08 06:51:57;;;;;;;13.13;6.75;;;;;;;-6.71;60.05;100231.00;5034718;28;20096;-54
2022/12/08 06:54:23;;;;;;;15.82;6.03;;;;;;;-6.68;60.02;100217.13;5034834;28;20467;-50
2022/12/08 06:56:48;;;;;;;13.70;6.32;;;;;;;-6.56;59.74;100234.44;5034150;28;20452;-52
2022/12/08 06:59:14;;;;;;;12.40;5.57;;;;;;;-6.58;59.51;100237.03;5032518;28;20033;-53
2022/12/08 07:01:39;;;;;;;12.98;5.63;;;;;;;-6.51;58.91;100248.31;5034721;28;20031;-52
2022/12/08 07:04:04;;;;;;;9.50;4.13;;;;;;;-6.45;58.57;100245.66;5034498;28;20029;-51
2022/12/08 07:06:30;;;;;;;12.75;6.05;;;;;;;-6.69;59.79;100234.47;5034082;28;20184;-50
2022/12/08 07:08:55;;;;;;;11.98;5.63;;;;;;;-6.79;59.19;100248.41;5032920;28;20041;-50
2022/12/08 07:11:20;;;;;;;18.85;5.63;;;;;;;-6.59;59.08;100235.31;5033435;28;20041;-49
2022/12/08 07:13:46;;;;;;;7.15;3.53;;;;;;;-6.59;59.12;100244.88;5031452;28;20048;-50
2022/12/08 07:16:15;;;;;;;12.05;6.15;;;;;;;-6.59;59.21;100240.50;5029210;28;20033;-60
2022/12/08 07:18:43;;;;;;;10.90;5.45;;;;;;;-6.55;58.69;100236.16;5029125;28;20405;-54
2022/12/08 07:21:11;;;;;;;11.93;5.28;;;;;;;-6.65;59.36;100230.97;5026994;28;20037;-58
2022/12/08 07:23:36;;;;;;;12.90;5.97;;;;;;;-6.61;59.22;100234.44;5032636;28;20025;-50
2022/12/08 07:26:03;;;;;;;15.27;6.25;;;;;;;-6.57;59.39;100228.34;5030576;28;20379;-55
2022/12/08 07:28:33;;;;;;;12.68;6.35;;;;;;;-6.49;59.15;100230.94;5033334;28;20603;-53
2022/12/08 07:30:59;;;;;;;9.77;4.68;;;;;;;-6.43;59.10;100235.25;5031667;28;20062;-57
2022/12/08 07:33:25;;;;;;;15.45;5.93;;;;;;;-6.44;58.84;100229.16;5033188;28;20025;-56
2022/12/08 07:35:55;;;;;;;13.73;5.65;;;;;;;-6.32;58.45;100241.28;5033209;28;20130;-58
2022/12/08 07:38:20;;;;;;;16.27;6.25;;;;;;;-6.44;59.09;100243.94;5033696;28;20036;-57
2022/12/08 07:40:45;;;;;;;13.65;5.50;;;;;;;-6.39;58.89;100230.03;5033347;28;20112;-57
2022/12/08 07:43:11;;;;;;;12.48;6.10;;;;;;;-6.34;59.25;100235.19;5032652;28;20026;-57
2022/12/08 07:45:36;;;;;;;17.30;6.75;;;;;;;-6.23;58.45;100242.97;5032967;28;20355;-54
2022/12/08 07:48:02;;;;;;;16.13;6.15;;;;;;;-6.27;58.82;100216.06;5032787;28;20064;-58
2022/12/08 07:50:28;;;;;;;24.55;6.63;;;;;;;-6.18;58.60;100245.56;5031935;28;20029;-51
2022/12/08 07:52:53;;;;;;;16.02;6.47;;;;;;;-6.32;58.44;100183.09;5033326;28;20036;-55
2022/12/08 07:55:18;;;;;;;15.20;6.72;;;;;;;-6.16;58.07;100209.94;5033191;28;20029;-52
2022/12/08 07:57:44;;;;;;;13.00;5.82;;;;;;;-6.10;58.23;100217.69;5024999;28;20334;-53
2022/12/08 08:00:10;;;;;;;13.40;5.70;;;;;;;-6.22;58.54;100222.13;5032575;28;20069;-56
2022/12/08 08:02:35;;;;;;;15.45;6.35;;;;;;;-6.36;58.26;100179.63;5033385;28;20029;-54
2022/12/08 08:05:01;;;;;;;8.70;4.38;;;;;;;-6.07;58.17;100215.06;5029047;28;20049;-51
2022/12/08 08:07:26;;;;;;;11.80;6.22;;;;;;;-6.18;58.33;100204.72;5032381;28;20364;-52
2022/12/08 08:09:52;;;;;;;13.38;6.82;;;;;;;-6.10;58.68;100189.91;5032428;28;20500;-58
2022/12/08 08:12:17;;;;;;;13.35;5.85;;;;;;;-5.95;57.42;100209.75;5031903;28;20038;-53
2022/12/08 08:14:43;;;;;;;14.45;6.22;;;;;;;-6.06;58.15;100203.78;5031737;28;20053;-55
2022/12/08 08:17:08;;;;;;;14.77;6.43;;;;;;;-5.95;57.63;100199.34;5032537;28;20087;-53
2022/12/08 08:19:33;;;;;;;15.00;6.45;;;;;;;-5.91;57.48;100188.00;5033015;28;20048;-53
2022/12/08 08:21:59;;;;;;;12.98;5.88;;;;;;;-5.86;57.84;100198.41;5032722;28;20159;-52
2022/12/08 08:24:24;;;;;;;12.70;6.18;;;;;;;-5.70;57.62;100191.34;5032141;28;20087;-51
2022/12/08 08:26:52;;;;;;;14.63;6.20;;;;;;;-5.64;57.46;100180.84;5031829;28;20037;-51
2022/12/08 08:29:17;;;;;;;14.80;5.93;;;;;;;-5.59;57.05;100177.31;5032648;28;20113;-56
2022/12/08 08:31:43;;;;;;;12.07;4.78;;;;;;;-5.41;57.05;100176.31;5032060;28;20030;-60
2022/12/08 08:34:08;;;;;;;12.05;6.22;;;;;;;-5.49;56.72;100168.56;5032463;28;20420;-53
2022/12/08 08:36:34;;;;;;;9.90;4.78;;;;;;;-5.31;56.57;100196.22;5031834;28;20112;-54
2022/12/08 08:38:59;;;;;;;17.38;6.13;;;;;;;-5.59;56.92;100198.19;5032353;28;20407;-50
2022/12/08 08:41:25;;;;;;;13.05;6.10;;;;;;;-5.72;57.85;100206.13;5031894;28;20098;-56
2022/12/08 08:43:50;;;;;;;14.48;6.82;;;;;;;-5.77;57.98;100208.75;5031425;28;20040;-56
2022/12/08 08:46:17;;;;;;;14.07;6.15;;;;;;;-5.78;58.11;100196.59;5030616;28;20437;-56
2022/12/08 08:48:42;;;;;;;14.70;6.45;;;;;;;-5.69;58.10;100198.28;5033019;28;20112;-51
2022/12/08 08:51:10;;;;;;;12.82;6.47;;;;;;;-5.64;57.86;100191.28;5032205;28;20460;-47
2022/12/08 08:53:37;;;;;;;15.63;6.88;;;;;;;-5.46;57.85;100173.75;5031103;28;20041;-55
2022/12/08 08:56:04;;;;;;;11.88;6.53;;;;;;;-5.24;57.56;100181.38;5030079;28;20372;-52
2022/12/08 08:58:29;;;;;;;15.77;6.78;;;;;;;-5.07;56.91;100170.75;5032275;28;20117;-56
2022/12/08 09:00:55;;;;;;;16.63;7.10;;;;;;;-5.05;57.17;100175.09;5031876;28;20359;-51
2022/12/08 09:03:20;;;;;;;14.98;7.65;;;;;;;-5.05;57.14;100190.75;5031538;28;20099;-54
2022/12/08 09:05:46;;;;;;;15.68;6.40;;;;;;;-5.09;57.05;100194.25;5031540;28;20052;-52
2022/12/08 09:08:11;;;;;;;14.27;6.15;;;;;;;-5.24;57.21;100183.97;5031972;28;20037;-54
2022/12/08 09:10:36;;;;;;;12.80;6.32;;;;;;;-5.31;57.69;100184.91;5032181;28;20044;-55
2022/12/08 09:13:02;;;;;;;15.73;6.93;;;;;;;-5.36;58.57;100185.81;5031560;28;20112;-52
2022/12/08 09:15:27;;;;;;;12.77;6.72;;;;;;;-5.30;58.03;100184.03;5031464;28;20040;-54
2022/12/08 09:17:53;;;;;;;12.20;6.85;;;;;;;-5.49;58.05;100155.50;5031803;28;20368;-52
2022/12/08 09:20:18;;;;;;;13.48;7.05;;;;;;;-5.33;58.38;100188.38;5031374;28;20030;-50
2022/12/08 09:22:44;;;;;;;15.40;7.50;;;;;;;-5.28;58.21;100187.50;5031243;28;20026;-55
2022/12/08 09:25:09;;;;;;;14.27;6.78;;;;;;;-5.28;58.15;100179.66;5029445;28;20037;-56
2022/12/08 09:27:34;;;;;;;13.70;6.75;;;;;;;-5.34;57.77;100147.50;5031733;28;20037;-54
2022/12/08 09:30:00;;;;;;;19.95;7.60;;;;;;;-5.21;57.75;100190.00;5030735;28;20030;-55
2022/12/08 09:32:26;;;;;;;12.13;6.47;;;;;;;-5.22;57.96;100171.78;5031235;28;20025;-52
2022/12/08 09:34:53;;;;;;;17.02;7.40;;;;;;;-5.30;57.86;100168.38;5031861;28;20032;-54
2022/12/08 09:37:18;;;;;;;14.90;7.00;;;;;;;-5.56;58.45;100144.25;5031635;28;20091;-52
2022/12/08 09:39:43;;;;;;;15.02;6.80;;;;;;;-5.44;57.84;100176.31;5035224;28;20029;-55
2022/12/08 09:42:10;;;;;;;13.20;7.10;;;;;;;-5.44;58.01;100166.75;5035764;28;20052;-54
2022/12/08 09:44:54;;;;;;;13.55;6.88;;;;;;;-5.43;58.05;100163.28;5034706;28;20036;-52
2022/12/08 09:47:30;;;;;;;15.60;7.43;;;;;;;-5.36;58.34;100169.31;5034690;28;20068;-65
2022/12/08 09:50:21;;;;;;;12.30;6.22;;;;;;;-5.29;58.33;100160.53;5035696;28;20041;-54
2022/12/08 09:52:52;;;;;;;14.98;6.07;;;;;;;-5.36;57.89;100169.31;5035041;28;20033;-60
2022/12/08 09:55:37;;;;;;;15.13;7.40;;;;;;;-5.42;58.38;100170.22;5034452;28;20036;-50
2022/12/08 09:58:12;;;;;;;14.57;7.07;;;;;;;-5.49;58.73;100163.34;5034971;28;20040;-54
2022/12/08 10:00:38;;;;;;;19.35;7.13;;;;;;;-5.50;58.25;100151.16;5034679;28;20052;-50
2022/12/08 10:03:09;;;;;;;14.93;7.05;;;;;;;-5.48;58.53;100173.75;5034801;28;20029;-55
2022/12/08 10:05:40;;;;;;;14.52;7.40;;;;;;;-5.41;58.25;100166.72;5031973;28;20041;-54
2022/12/08 10:08:08;;;;;;;14.43;7.00;;;;;;;-5.41;58.70;100145.00;5034675;28;20029;-58
2022/12/08 10:10:56;;;;;;;17.33;7.68;;;;;;;-5.34;58.69;100151.88;5034405;28;20037;-54
2022/12/08 10:13:48;;;;;;;10.07;5.13;;;;;;;-5.07;57.68;100155.94;5034393;28;20037;-53
2022/12/08 10:16:33;;;;;;;14.95;7.07;;;;;;;-5.23;58.73;100160.44;5034946;28;20116;-53
2022/12/08 10:19:14;;;;;;;13.00;6.85;;;;;;;-5.26;58.70;100157.03;5032978;28;20029;-53
2022/12/08 10:21:39;;;;;;;13.63;6.70;;;;;;;-5.39;59.30;100159.75;5033057;28;20088;-54
2022/12/08 10:24:15;;;;;;;14.18;7.35;;;;;;;-5.42;59.72;100158.94;5034987;28;20067;-54
2022/12/08 10:26:40;;;;;;;;;;;;;;;-5.08;58.25;100159.41;5035359;28;20045;-53
2022/12/08 10:29:11;;;;;;;14.32;6.88;;;;;;;-5.27;59.01;100163.13;5034974;28;19962;-53
2022/12/08 10:31:36;;;;;;;12.88;7.18;;;;;;;-5.31;59.62;100166.63;5033912;28;20368;-53
2022/12/08 10:34:23;;;;;;;12.82;7.10;;;;;;;-5.26;59.83;100159.63;5034578;28;20029;-57
2022/12/08 10:36:57;;;;;;;15.38;7.70;;;;;;;-5.50;59.87;100130.28;5034677;28;20042;-61
2022/12/08 10:39:30;;;;;;;12.73;7.60;;;;;;;-5.29;59.76;100160.53;5033775;28;20415;-52
2022/12/08 10:42:21;;;;;;;16.73;8.00;;;;;;;-5.18;60.23;100160.41;5034032;28;20083;-51
2022/12/08 10:44:59;;;;;;;16.02;7.28;;;;;;;-5.20;59.23;100144.75;5034049;28;20029;-56
2022/12/08 10:47:27;;;;;;;14.43;7.20;;;;;;;-5.16;59.20;100158.66;5033527;28;20392;-56
2022/12/08 10:50:19;;;;;;;16.92;7.32;;;;;;;-5.19;59.60;100158.69;5032768;28;20057;-53
2022/12/08 10:52:53;;;;;;;17.52;7.75;;;;;;;-5.24;59.83;100158.72;5034440;28;20032;-51
2022/12/08 10:55:20;;;;;;;19.73;7.80;;;;;;;-5.17;59.46;100143.03;5034084;28;20029;-59
2022/12/08 10:57:49;;;;;;;14.52;7.00;;;;;;;-5.17;59.73;100150.84;5034226;28;20025;-56
2022/12/08 11:00:18;;;;;;;14.98;7.55;;;;;;;-5.24;59.49;100145.66;5033168;28;20037;-56
2022/12/08 11:02:53;;;;;;;17.35;7.50;;;;;;;-5.17;59.77;100150.84;5033535;28;20045;-51
2022/12/08 11:05:21;;;;;;;12.27;5.82;;;;;;;-5.21;59.39;100148.25;5034249;28;20079;-52
2022/12/08 11:07:52;;;;;;;14.68;7.28;;;;;;;-5.20;59.86;100160.41;5034044;28;20052;-54
2022/12/08 11:10:19;;;;;;;15.05;6.93;;;;;;;-5.13;59.84;100161.22;5033702;28;20040;-54
2022/12/08 11:12:45;;;;;;;17.67;6.72;;;;;;;-5.10;59.49;100137.69;5033899;28;20033;-51
2022/12/08 11:15:16;;;;;;;14.07;6.43;;;;;;;-5.10;59.74;100155.13;5033437;28;20352;-53
2022/12/08 11:17:44;;;;;;;18.13;7.50;;;;;;;-5.07;59.70;100147.25;5033131;28;20034;-55
2022/12/08 11:20:10;;;;;;;15.05;6.72;;;;;;;-4.95;59.06;100141.03;5032044;28;20119;-56
2022/12/08 11:22:41;;;;;;;13.18;6.95;;;;;;;-5.06;59.19;100146.34;5033788;28;20065;-54
2022/12/08 11:25:06;;;;;;;16.50;7.40;;;;;;;-5.03;59.25;100142.88;5031909;28;20409;-52
2022/12/08 11:27:35;;;;;;;17.48;7.45;;;;;;;-5.01;59.72;100159.38;5033503;28;20083;-54
2022/12/08 11:30:02;;;;;;;15.20;7.00;;;;;;;-5.03;59.88;100161.13;5033618;28;20033;-52